createdAt,value
2023-05-23T00:00:11.553Z,8.57
2023-05-23T00:02:40.288Z,9.27
2023-05-23T00:05:09.763Z,9.00
2023-05-23T00:07:38.488Z,9.23
2023-05-23T00:10:07.598Z,7.35
2023-05-23T00:12:37.826Z,7.88
2023-05-23T00:15:10.025Z,7.93
2023-05-23T00:17:39.744Z,5.60
2023-05-23T00:20:11.766Z,6.13
2023-05-23T00:22:43.229Z,6.93
2023-05-23T00:25:12.317Z,6.45
2023-05-23T00:27:41.129Z,6.72
2023-05-23T00:30:11.729Z,4.90
2023-05-23T00:32:40.572Z,6.55
2023-05-23T00:35:09.927Z,5.68
2023-05-23T00:37:38.646Z,8.05
2023-05-23T00:40:08.575Z,5.32
2023-05-23T00:42:37.695Z,5.80
2023-05-23T00:45:08.014Z,5.35
2023-05-23T00:47:38.321Z,5.28
2023-05-23T00:50:08.371Z,6.00
2023-05-23T00:52:37.512Z,5.35
2023-05-23T00:55:06.743Z,6.65
2023-05-23T00:57:35.623Z,7.93
2023-05-23T01:00:04.685Z,6.40
2023-05-23T01:02:36.925Z,5.80
2023-05-23T01:05:07.520Z,6.25
2023-05-23T01:07:36.193Z,5.80
2023-05-23T01:10:05.372Z,5.88
2023-05-23T01:12:40.326Z,5.93
2023-05-23T01:15:10.233Z,6.30
2023-05-23T01:17:44.071Z,6.32
2023-05-23T01:20:16.321Z,6.43
2023-05-23T01:22:55.780Z,6.05
2023-05-23T01:25:30.457Z,6.75
2023-05-23T01:28:03.299Z,6.72
2023-05-23T01:30:34.146Z,5.90
2023-05-23T01:33:03.414Z,5.30
2023-05-23T01:35:32.300Z,5.70
2023-05-23T01:38:01.279Z,5.60
2023-05-23T01:40:29.793Z,5.30
2023-05-23T01:42:58.855Z,5.18
2023-05-23T01:45:29.912Z,5.82
2023-05-23T01:47:59.461Z,10.52
2023-05-23T01:50:28.603Z,10.30
2023-05-23T01:52:57.293Z,6.00
2023-05-23T01:55:27.519Z,7.18
2023-05-23T01:57:57.159Z,6.57
2023-05-23T02:00:25.805Z,7.90
2023-05-23T02:02:55.735Z,6.13
2023-05-23T02:05:24.338Z,6.97
2023-05-23T02:07:52.865Z,7.28
2023-05-23T02:10:21.765Z,7.53
2023-05-23T02:12:50.494Z,6.32
2023-05-23T02:15:19.175Z,9.55
2023-05-23T02:17:48.332Z,7.63
2023-05-23T02:20:19.620Z,9.13
2023-05-23T02:22:48.577Z,6.40
2023-05-23T02:25:17.111Z,7.57
2023-05-23T02:27:45.849Z,6.60
2023-05-23T02:30:14.944Z,8.32
2023-05-23T02:32:43.469Z,7.78
2023-05-23T02:35:12.309Z,8.50
2023-05-23T02:37:42.749Z,8.25
2023-05-23T02:40:11.658Z,12.07
2023-05-23T02:42:40.296Z,7.80
2023-05-23T02:45:09.437Z,7.72
2023-05-23T02:47:38.253Z,9.80
2023-05-23T02:50:07.096Z,11.75
2023-05-23T02:52:35.560Z,8.07
2023-05-23T02:55:06.211Z,10.52
2023-05-23T02:57:34.765Z,7.70
2023-05-23T03:00:03.562Z,10.27
2023-05-23T03:02:32.452Z,8.85
2023-05-23T03:05:01.443Z,8.70
2023-05-23T03:07:30.417Z,8.15
2023-05-23T03:09:59.606Z,8.57
2023-05-23T03:12:29.941Z,9.70
2023-05-23T03:14:58.722Z,11.57
2023-05-23T03:17:27.847Z,10.23
2023-05-23T03:19:56.796Z,8.13
2023-05-23T03:22:25.971Z,9.10
2023-05-23T03:24:54.921Z,11.68
2023-05-23T03:27:23.629Z,12.93
2023-05-23T03:29:53.745Z,9.32
2023-05-23T03:32:22.685Z,8.68
2023-05-23T03:34:51.452Z,8.88
2023-05-23T03:37:20.224Z,9.43
2023-05-23T03:39:48.947Z,8.90
2023-05-23T03:42:17.738Z,8.27
2023-05-23T03:44:46.681Z,8.70
2023-05-23T03:47:16.852Z,10.27
2023-05-23T03:49:46.348Z,10.50
2023-05-23T03:52:15.342Z,7.22
2023-05-23T03:54:44.309Z,10.70
2023-05-23T03:57:13.075Z,11.35
2023-05-23T03:59:41.990Z,7.68
2023-05-23T04:02:10.833Z,8.50
2023-05-23T04:04:41.712Z,10.20
2023-05-23T04:07:11.567Z,8.35
2023-05-23T04:09:40.266Z,7.72
2023-05-23T04:12:09.986Z,10.52
2023-05-23T04:14:39.676Z,7.43
2023-05-23T04:17:09.692Z,10.95
2023-05-23T04:19:38.609Z,10.93
2023-05-23T04:22:09.653Z,8.13
2023-05-23T04:24:39.677Z,10.75
2023-05-23T04:27:08.590Z,8.85
2023-05-23T04:29:38.726Z,10.13
2023-05-23T04:32:08.138Z,10.23
2023-05-23T04:34:38.338Z,12.02
2023-05-23T04:37:07.279Z,11.48
2023-05-23T04:39:38.690Z,11.02
2023-05-23T04:42:07.499Z,9.10
2023-05-23T04:44:37.545Z,10.88
2023-05-23T04:47:09.221Z,13.57
2023-05-23T04:49:38.194Z,11.27
2023-05-23T04:52:06.904Z,12.45
2023-05-23T04:54:37.789Z,11.45
2023-05-23T04:57:06.586Z,10.60
2023-05-23T04:59:35.206Z,10.05
2023-05-23T05:02:04.003Z,12.35
2023-05-23T05:04:32.886Z,12.30
2023-05-23T05:07:03.761Z,11.60
2023-05-23T05:09:32.341Z,12.60
2023-05-23T05:12:02.387Z,11.98
2023-05-23T05:14:30.914Z,10.98
2023-05-23T05:17:00.013Z,10.73
2023-05-23T05:19:28.731Z,13.68
2023-05-23T05:21:58.017Z,14.85
2023-05-23T05:24:27.759Z,12.05
2023-05-23T05:26:56.602Z,11.82
2023-05-23T05:29:26.792Z,15.02
2023-05-23T05:31:55.438Z,12.48
2023-05-23T05:34:24.536Z,13.75
2023-05-23T05:36:56.229Z,14.68
2023-05-23T05:39:27.643Z,14.43
2023-05-23T05:41:56.630Z,18.90
2023-05-23T05:44:27.166Z,14.27
2023-05-23T05:46:56.615Z,14.73
2023-05-23T05:49:25.259Z,10.10
2023-05-23T05:51:53.916Z,13.73
2023-05-23T05:54:22.536Z,11.00
2023-05-23T05:56:51.187Z,12.25
2023-05-23T05:59:19.858Z,14.52
2023-05-23T06:01:51.242Z,12.30
2023-05-23T06:04:20.135Z,10.70
2023-05-23T06:06:49.064Z,13.18
2023-05-23T06:09:17.640Z,13.55
2023-05-23T06:11:46.659Z,11.10
2023-05-23T06:14:15.208Z,11.68
2023-05-23T06:16:44.341Z,10.10
2023-05-23T06:19:14.448Z,14.07
2023-05-23T06:21:43.115Z,12.38
2023-05-23T06:24:11.669Z,12.48
2023-05-23T06:26:40.325Z,10.63
2023-05-23T06:29:08.883Z,11.95
2023-05-23T06:31:37.423Z,13.32
2023-05-23T06:34:06.208Z,11.85
2023-05-23T06:36:37.420Z,14.80
2023-05-23T06:39:06.177Z,12.50
2023-05-23T06:41:34.963Z,12.75
2023-05-23T06:44:03.588Z,12.75
2023-05-23T06:46:32.109Z,11.50
2023-05-23T06:49:13.762Z,12.75
2023-05-23T06:51:44.977Z,12.00
2023-05-23T06:54:13.741Z,10.00
2023-05-23T06:56:42.246Z,14.43
2023-05-23T06:59:10.828Z,12.25
2023-05-23T07:01:39.677Z,14.77
2023-05-23T07:04:08.482Z,14.38
2023-05-23T07:06:37.542Z,14.25
2023-05-23T07:09:07.672Z,15.45
2023-05-23T07:11:36.948Z,14.63
2023-05-23T07:14:06.023Z,11.02
2023-05-23T07:16:34.754Z,10.35
2023-05-23T07:19:05.428Z,11.00
2023-05-23T07:21:34.207Z,13.65
2023-05-23T07:24:03.009Z,12.48
2023-05-23T07:26:33.073Z,13.27
2023-05-23T07:29:01.672Z,17.58
2023-05-23T07:31:30.302Z,11.95
2023-05-23T07:33:58.883Z,13.30
2023-05-23T07:36:27.690Z,16.42
2023-05-23T07:38:56.595Z,12.07
2023-05-23T07:41:25.275Z,13.68
2023-05-23T07:43:55.339Z,16.90
2023-05-23T07:46:24.309Z,13.98
2023-05-23T07:48:52.816Z,17.50
2023-05-23T07:51:21.990Z,16.70
2023-05-23T07:53:50.602Z,19.80
2023-05-23T07:56:19.208Z,15.68
2023-05-23T07:58:47.875Z,14.90
2023-05-23T08:01:18.780Z,14.68
2023-05-23T08:03:47.629Z,15.18
2023-05-23T08:06:16.367Z,14.70
2023-05-23T08:08:44.988Z,14.85
2023-05-23T08:11:15.260Z,14.55
2023-05-23T08:13:43.779Z,14.65
2023-05-23T08:16:12.315Z,19.90
2023-05-23T08:18:42.585Z,17.80
2023-05-23T08:21:11.196Z,22.35
2023-05-23T08:23:40.101Z,22.73
2023-05-23T08:26:08.634Z,24.95
2023-05-23T08:28:37.244Z,23.00
2023-05-23T08:31:07.406Z,23.80
2023-05-23T08:33:36.181Z,22.20
2023-05-23T08:36:07.390Z,18.50
2023-05-23T08:38:35.989Z,20.27
2023-05-23T08:41:04.527Z,18.23
2023-05-23T08:43:33.108Z,23.23
2023-05-23T08:46:01.641Z,23.17
2023-05-23T08:48:30.405Z,19.25
2023-05-23T08:50:59.884Z,22.90
2023-05-23T08:53:31.076Z,20.17
2023-05-23T08:56:02.839Z,19.67
2023-05-23T08:58:32.106Z,21.38
2023-05-23T09:01:01.966Z,19.83
2023-05-23T09:03:31.208Z,16.20
2023-05-23T09:06:00.089Z,14.73
2023-05-23T09:08:34.095Z,21.85
2023-05-23T09:11:04.226Z,14.85
2023-05-23T09:13:32.941Z,13.05
2023-05-23T09:16:05.344Z,16.30
2023-05-23T09:18:37.214Z,17.10
2023-05-23T09:21:07.042Z,16.58
2023-05-23T09:23:37.570Z,11.98
2023-05-23T09:26:06.480Z,14.60
2023-05-23T09:28:39.855Z,15.77
2023-05-23T09:31:09.128Z,13.77
2023-05-23T09:33:38.941Z,17.35
2023-05-23T09:36:07.852Z,16.10
2023-05-23T09:38:41.454Z,16.45
2023-05-23T09:41:12.432Z,16.02
2023-05-23T09:43:41.173Z,13.27
2023-05-23T09:46:10.404Z,18.70
2023-05-23T09:48:39.618Z,15.25
2023-05-23T09:51:08.435Z,17.13
2023-05-23T09:53:37.593Z,16.00
2023-05-23T09:56:08.681Z,20.75
2023-05-23T09:58:38.133Z,14.93
2023-05-23T10:01:09.470Z,17.73
2023-05-23T10:03:41.435Z,17.25
2023-05-23T10:06:11.411Z,12.13
2023-05-23T10:08:41.516Z,15.48
2023-05-23T10:11:34.086Z,18.67
2023-05-23T10:14:05.346Z,11.45
2023-05-23T10:16:38.286Z,14.90
2023-05-23T10:19:09.199Z,11.10
2023-05-23T10:21:40.978Z,12.55
2023-05-23T10:24:10.360Z,10.70
2023-05-23T10:26:38.967Z,7.72
2023-05-23T10:29:09.233Z,7.30
2023-05-23T10:31:38.356Z,8.20
2023-05-23T10:34:10.972Z,7.95
2023-05-23T10:36:42.805Z,7.78
2023-05-23T10:39:17.483Z,9.68
2023-05-23T10:41:49.673Z,8.73
2023-05-23T10:44:23.084Z,9.70
2023-05-23T10:46:53.767Z,15.68
2023-05-23T10:49:22.849Z,10.43
2023-05-23T10:51:52.761Z,10.65
2023-05-23T10:54:22.281Z,10.00
2023-05-23T10:57:04.508Z,9.45
2023-05-23T10:59:34.504Z,10.95
2023-05-23T11:02:03.517Z,10.40
2023-05-23T11:04:32.290Z,10.02
2023-05-23T11:07:00.953Z,11.88
2023-05-23T11:09:30.060Z,8.52
2023-05-23T11:12:02.849Z,9.25
2023-05-23T11:14:38.114Z,9.98
2023-05-23T11:17:17.937Z,7.38
2023-05-23T11:20:06.732Z,9.32
2023-05-23T11:22:35.365Z,9.88
2023-05-23T11:25:04.320Z,6.45
2023-05-23T11:27:34.681Z,9.38
2023-05-23T11:30:06.013Z,8.73
2023-05-23T11:32:34.908Z,6.88
2023-05-23T11:35:03.879Z,7.95
2023-05-23T11:37:32.744Z,12.18
2023-05-23T11:40:02.199Z,11.75
2023-05-23T11:42:31.050Z,10.35
2023-05-23T11:44:59.604Z,14.52
2023-05-23T11:47:29.959Z,9.85
2023-05-23T11:49:58.712Z,10.48
2023-05-23T11:52:27.403Z,13.25
2023-05-23T11:54:58.021Z,12.95
2023-05-23T11:57:29.374Z,12.18
2023-05-23T11:59:57.891Z,13.30
2023-05-23T12:02:30.320Z,14.95
2023-05-23T12:05:00.835Z,10.18
2023-05-23T12:07:29.433Z,12.63
2023-05-23T12:09:58.037Z,11.32
2023-05-23T12:12:26.628Z,11.13
2023-05-23T12:14:57.917Z,9.00
2023-05-23T12:17:31.550Z,11.00
2023-05-23T12:20:01.796Z,9.75
2023-05-23T12:22:30.874Z,9.32
2023-05-23T12:24:59.619Z,8.05
2023-05-23T12:27:31.580Z,9.48
2023-05-23T12:30:10.572Z,12.63
2023-05-23T12:32:41.633Z,13.60
2023-05-23T12:35:13.237Z,12.52
2023-05-23T12:37:43.119Z,8.73
2023-05-23T12:40:12.778Z,12.18
2023-05-23T12:42:52.724Z,10.60
2023-05-23T12:45:21.527Z,8.90
2023-05-23T12:47:53.035Z,8.63
2023-05-23T12:50:24.022Z,9.57
2023-05-23T12:52:52.542Z,9.50
2023-05-23T12:55:22.283Z,9.70
2023-05-23T12:57:50.979Z,10.82
2023-05-23T13:00:20.428Z,9.07
2023-05-23T13:02:50.361Z,10.02
2023-05-23T13:05:22.560Z,11.38
2023-05-23T13:07:52.541Z,9.98
2023-05-23T13:10:24.086Z,12.02
2023-05-23T13:12:52.576Z,10.88
2023-05-23T13:15:21.173Z,14.00
2023-05-23T13:17:50.481Z,10.63
2023-05-23T13:20:19.332Z,11.13
2023-05-23T13:22:47.892Z,8.63
2023-05-23T13:25:17.866Z,12.48
2023-05-23T13:27:48.194Z,10.13
2023-05-23T13:30:17.726Z,15.60
2023-05-23T13:32:46.434Z,13.95
2023-05-23T13:35:15.251Z,9.88
2023-05-23T13:37:43.745Z,8.80
2023-05-23T13:40:14.983Z,8.02
2023-05-23T13:42:44.849Z,10.55
2023-05-23T13:45:13.765Z,9.40
2023-05-23T13:47:42.346Z,10.38
2023-05-23T13:50:11.781Z,9.63
2023-05-23T13:52:43.424Z,13.18
2023-05-23T13:55:13.485Z,10.65
2023-05-23T13:57:42.052Z,11.90
2023-05-23T14:00:12.939Z,10.30
2023-05-23T14:02:41.444Z,9.60
2023-05-23T14:05:10.626Z,9.25
2023-05-23T14:07:39.610Z,7.95
2023-05-23T14:10:09.447Z,10.55
2023-05-23T14:12:38.297Z,9.23
2023-05-23T14:15:07.265Z,12.90
2023-05-23T14:17:37.181Z,11.95
2023-05-23T14:20:06.188Z,14.73
2023-05-23T14:22:34.849Z,9.18
2023-05-23T14:25:03.376Z,13.88
2023-05-23T14:27:31.912Z,10.00
2023-05-23T14:30:00.452Z,7.68
2023-05-23T14:32:28.951Z,6.60
2023-05-23T14:35:02.505Z,5.85
2023-05-23T14:37:31.054Z,9.43
2023-05-23T14:39:59.511Z,8.52
2023-05-23T14:42:28.174Z,8.65
2023-05-23T14:44:56.745Z,13.52
2023-05-23T14:47:25.610Z,12.13
2023-05-23T14:49:54.139Z,9.45
2023-05-23T14:52:24.276Z,11.60
2023-05-23T14:54:52.820Z,9.82
2023-05-23T14:57:21.367Z,8.15
2023-05-23T14:59:50.095Z,7.55
2023-05-23T15:02:18.684Z,6.72
2023-05-23T15:04:47.301Z,10.15
2023-05-23T15:07:18.261Z,7.70
2023-05-23T15:09:48.536Z,7.72
2023-05-23T15:12:17.084Z,9.50
2023-05-23T15:14:45.730Z,10.40
2023-05-23T15:17:19.902Z,9.68
2023-05-23T15:19:48.451Z,8.00
2023-05-23T15:22:34.271Z,10.40
2023-05-23T15:25:07.594Z,11.15
2023-05-23T15:27:36.136Z,10.20
2023-05-23T15:30:04.790Z,11.85
2023-05-23T15:32:33.438Z,9.25
2023-05-23T15:35:03.912Z,14.60
2023-05-23T15:37:32.475Z,10.63
2023-05-23T15:40:01.059Z,12.45
2023-05-23T15:42:30.907Z,10.70
2023-05-23T15:44:59.452Z,8.52
2023-05-23T15:47:28.131Z,10.73
2023-05-23T15:49:56.664Z,7.80
2023-05-23T15:52:25.143Z,9.75
2023-05-23T15:54:53.610Z,12.88
2023-05-23T15:57:22.192Z,9.10
2023-05-23T15:59:52.296Z,9.98
2023-05-23T16:02:20.967Z,9.55
2023-05-23T16:04:49.680Z,6.90
2023-05-23T16:07:18.608Z,8.15
2023-05-23T16:09:47.242Z,8.10
2023-05-23T16:12:15.737Z,12.48
2023-05-23T16:14:44.236Z,9.48
2023-05-23T16:17:14.355Z,6.90
2023-05-23T16:19:43.225Z,6.72
2023-05-23T16:22:11.938Z,11.45
2023-05-23T16:24:40.449Z,10.65
2023-05-23T16:27:09.082Z,7.65
2023-05-23T16:29:37.562Z,8.75
2023-05-23T16:32:06.292Z,5.80
2023-05-23T16:34:36.578Z,9.85
2023-05-23T16:37:05.154Z,7.47
2023-05-23T16:39:33.909Z,8.82
2023-05-23T16:42:02.742Z,9.45
2023-05-23T16:44:31.393Z,8.38
2023-05-23T16:46:59.994Z,9.30
2023-05-23T16:49:28.623Z,5.88
2023-05-23T16:51:58.664Z,9.50
2023-05-23T16:54:27.246Z,12.50
2023-05-23T16:56:55.983Z,14.50
2023-05-23T16:59:24.624Z,9.75
2023-05-23T17:01:53.250Z,9.70
2023-05-23T17:04:21.961Z,8.27
2023-05-23T17:06:50.786Z,10.18
2023-05-23T17:09:22.355Z,8.95
2023-05-23T17:11:51.386Z,9.23
2023-05-23T17:14:20.213Z,9.98
2023-05-23T17:16:48.698Z,9.68
2023-05-23T17:19:17.320Z,9.57
2023-05-23T17:21:45.870Z,12.20
2023-05-23T17:24:14.517Z,11.65
2023-05-23T17:26:44.355Z,12.10
2023-05-23T17:29:12.908Z,7.95
2023-05-23T17:31:41.525Z,10.15
2023-05-23T17:34:12.197Z,9.70
2023-05-23T17:36:40.828Z,8.68
2023-05-23T17:39:09.775Z,9.65
2023-05-23T17:41:38.280Z,7.88
2023-05-23T17:44:08.227Z,7.20
2023-05-23T17:46:36.949Z,10.20
2023-05-23T17:49:05.663Z,9.05
2023-05-23T17:51:34.689Z,10.55
2023-05-23T17:54:04.372Z,7.45
2023-05-23T17:56:33.036Z,10.00
2023-05-23T17:59:05.979Z,8.60
2023-05-23T18:01:36.247Z,7.97
2023-05-23T18:04:06.110Z,7.38
2023-05-23T18:06:34.767Z,10.00
2023-05-23T18:09:03.558Z,8.80
2023-05-23T18:11:33.240Z,8.93
2023-05-23T18:14:01.868Z,9.00
2023-05-23T18:16:31.126Z,9.10
2023-05-23T18:19:01.280Z,12.85
2023-05-23T18:21:29.802Z,8.38
2023-05-23T18:23:58.525Z,11.50
2023-05-23T18:26:27.302Z,12.77
2023-05-23T18:28:55.871Z,7.97
2023-05-23T18:31:24.382Z,7.35
2023-05-23T18:33:53.355Z,10.45
2023-05-23T18:36:24.954Z,14.10
2023-05-23T18:38:53.503Z,7.65
2023-05-23T18:41:22.356Z,8.73
2023-05-23T18:43:50.939Z,9.55
2023-05-23T18:46:19.572Z,8.25
2023-05-23T18:48:48.139Z,10.57
2023-05-23T18:51:16.773Z,16.55
2023-05-23T18:53:46.887Z,9.23
2023-05-23T18:56:15.498Z,6.50
2023-05-23T18:58:46.114Z,7.28
2023-05-23T19:01:15.845Z,11.25
2023-05-23T19:03:45.726Z,9.35
2023-05-23T19:06:14.414Z,9.95
2023-05-23T19:08:43.077Z,9.32
2023-05-23T19:11:13.919Z,12.00
2023-05-23T19:13:42.469Z,9.60
2023-05-23T19:16:11.039Z,9.77
2023-05-23T19:18:39.726Z,14.75
2023-05-23T19:21:08.511Z,10.05
2023-05-23T19:23:37.136Z,10.75
2023-05-23T19:26:05.912Z,7.97
2023-05-23T19:28:35.950Z,8.82
2023-05-23T19:31:04.443Z,8.73
2023-05-23T19:33:33.026Z,7.22
2023-05-23T19:36:01.550Z,11.50
2023-05-23T19:38:30.128Z,8.85
2023-05-23T19:40:59.000Z,11.25
2023-05-23T19:43:27.676Z,9.63
2023-05-23T19:45:57.709Z,9.57
2023-05-23T19:48:26.573Z,9.35
2023-05-23T19:50:55.105Z,14.35
2023-05-23T19:53:23.874Z,7.15
2023-05-23T19:55:52.457Z,8.00
2023-05-23T19:58:21.231Z,10.55
2023-05-23T20:00:49.808Z,10.88
2023-05-23T20:03:19.731Z,7.45
2023-05-23T20:05:48.640Z,10.32
2023-05-23T20:08:17.545Z,7.35
2023-05-23T20:10:46.373Z,8.45
2023-05-23T20:13:15.076Z,10.48
2023-05-23T20:15:43.745Z,12.10
2023-05-23T20:18:12.359Z,9.45
2023-05-23T20:20:42.542Z,8.55
2023-05-23T20:23:11.246Z,12.02
2023-05-23T20:25:40.361Z,9.73
2023-05-23T20:28:09.820Z,6.65
2023-05-23T20:30:38.524Z,10.32
2023-05-23T20:33:07.802Z,6.72
2023-05-23T20:35:36.999Z,7.40
2023-05-23T20:38:06.999Z,7.65
2023-05-23T20:40:35.691Z,8.00
2023-05-23T20:43:05.985Z,10.10
2023-05-23T20:45:34.560Z,7.05
2023-05-23T20:48:03.344Z,8.40
2023-05-23T20:50:33.790Z,10.80
2023-05-23T20:53:02.676Z,7.20
2023-05-23T20:55:34.937Z,10.75
2023-05-23T20:58:03.647Z,10.18
2023-05-23T21:00:32.312Z,10.07
2023-05-23T21:03:02.333Z,9.57
2023-05-23T21:05:31.074Z,12.13
2023-05-23T21:07:59.679Z,7.60
2023-05-23T21:10:28.335Z,8.40
2023-05-23T21:12:58.281Z,10.30
2023-05-23T21:15:27.100Z,6.90
2023-05-23T21:17:56.094Z,7.65
2023-05-23T21:20:24.917Z,6.65
2023-05-23T21:22:53.766Z,10.18
2023-05-23T21:25:22.312Z,9.40
2023-05-23T21:27:51.166Z,8.18
2023-05-23T21:30:21.645Z,8.93
2023-05-23T21:32:50.713Z,6.82
2023-05-23T21:35:19.471Z,10.40
2023-05-23T21:37:51.174Z,8.07
2023-05-23T21:40:19.752Z,7.85
2023-05-23T21:42:48.302Z,11.55
2023-05-23T21:45:16.912Z,10.52
2023-05-23T21:47:46.971Z,7.55
2023-05-23T21:50:15.549Z,10.82
2023-05-23T21:52:44.265Z,10.70
2023-05-23T21:55:12.767Z,5.07
2023-05-23T21:57:41.345Z,7.68
2023-05-23T22:00:12.572Z,7.57
2023-05-23T22:02:41.525Z,9.20
2023-05-23T22:05:13.229Z,7.50
2023-05-23T22:07:41.939Z,8.70
2023-05-23T22:10:11.141Z,6.40
2023-05-23T22:12:40.242Z,8.90
2023-05-23T22:15:09.848Z,8.52
2023-05-23T22:17:43.297Z,7.95
2023-05-23T22:20:16.841Z,9.15
2023-05-23T22:22:45.448Z,8.68
2023-05-23T22:25:14.155Z,10.80
2023-05-23T22:27:42.780Z,12.15
2023-05-23T22:30:11.884Z,7.43
2023-05-23T22:32:40.451Z,8.05
2023-05-23T22:35:09.396Z,8.82
2023-05-23T22:37:39.491Z,10.30
2023-05-23T22:40:09.977Z,12.95
2023-05-23T22:42:40.182Z,10.50
2023-05-23T22:45:09.288Z,10.50
2023-05-23T22:47:37.971Z,11.43
2023-05-23T22:50:06.684Z,5.72
2023-05-23T22:52:35.677Z,8.70
2023-05-23T22:55:08.091Z,6.65
2023-05-23T22:57:37.420Z,6.90
2023-05-23T23:00:06.698Z,10.20
2023-05-23T23:02:35.691Z,10.25
2023-05-23T23:05:04.544Z,8.82
2023-05-23T23:07:33.240Z,11.68
2023-05-23T23:10:01.883Z,9.63
2023-05-23T23:12:31.791Z,10.15
2023-05-23T23:15:00.602Z,8.10
2023-05-23T23:17:29.894Z,8.85
2023-05-23T23:19:58.650Z,5.47
2023-05-23T23:22:27.409Z,9.27
2023-05-23T23:24:56.032Z,9.77
2023-05-23T23:27:30.946Z,9.07
2023-05-23T23:30:01.068Z,8.80
2023-05-23T23:32:29.644Z,8.15
2023-05-23T23:34:58.288Z,7.53
2023-05-23T23:37:27.361Z,6.40
2023-05-23T23:39:56.111Z,9.98
2023-05-23T23:42:25.123Z,5.85
2023-05-23T23:44:54.053Z,7.40
2023-05-23T23:47:23.954Z,6.85
2023-05-23T23:49:52.602Z,6.72
2023-05-23T23:52:21.263Z,7.93
2023-05-23T23:54:49.927Z,10.68
2023-05-23T23:57:18.666Z,5.88
2023-05-23T23:59:47.631Z,7.68
